createdAt,value
2023-04-05T00:02:18.975Z,34.85
2023-04-05T00:04:57.458Z,39.63
2023-04-05T00:07:24.909Z,39.42
2023-04-05T00:09:51.843Z,39.42
2023-04-05T00:12:18.796Z,36.60
2023-04-05T00:14:46.220Z,38.08
2023-04-05T00:17:13.337Z,40.42
2023-04-05T00:19:40.250Z,35.90
2023-04-05T00:22:10.996Z,43.47
2023-04-05T00:24:43.543Z,39.55
2023-04-05T00:27:10.675Z,36.67
2023-04-05T00:29:37.856Z,39.47
2023-04-05T00:32:05.490Z,39.88
2023-04-05T00:34:33.803Z,39.78
2023-04-05T00:37:01.058Z,36.45
2023-04-05T00:39:28.010Z,40.92
2023-04-05T00:41:56.040Z,40.95
2023-04-05T00:44:22.995Z,41.85
2023-04-05T00:46:50.052Z,43.35
2023-04-05T00:49:17.694Z,41.42
2023-04-05T00:51:45.114Z,46.72
2023-04-05T00:54:13.041Z,49.03
2023-04-05T00:56:41.020Z,46.78
2023-04-05T00:59:08.144Z,46.67
2023-04-05T01:01:38.358Z,43.20
2023-04-05T01:04:07.450Z,43.08
2023-04-05T01:06:40.769Z,50.17
2023-04-05T01:09:35.294Z,49.75
2023-04-05T01:12:09.507Z,49.30
2023-04-05T01:14:46.606Z,50.30
2023-04-05T01:17:13.702Z,47.13
2023-04-05T01:19:42.125Z,47.03
2023-04-05T01:22:37.981Z,46.95
2023-04-05T01:25:39.069Z,52.47
2023-04-05T01:28:38.716Z,45.65
2023-04-05T01:31:27.399Z,50.35
2023-04-05T01:34:08.614Z,53.33
2023-04-05T01:36:48.281Z,51.58
2023-04-05T01:39:20.246Z,52.35
2023-04-05T01:41:47.479Z,58.80
2023-04-05T01:44:14.969Z,55.35
2023-04-05T01:46:42.319Z,56.58
2023-04-05T01:49:09.292Z,55.65
2023-04-05T01:51:36.429Z,52.85
2023-04-05T01:54:03.373Z,62.17
2023-04-05T01:56:30.259Z,50.20
2023-04-05T01:58:57.150Z,53.95
2023-04-05T02:01:24.778Z,59.00
2023-04-05T02:03:51.936Z,60.60
2023-04-05T02:06:19.087Z,60.90
2023-04-05T02:08:45.957Z,60.10
2023-04-05T02:11:12.856Z,55.15
2023-04-05T02:13:39.672Z,59.70
2023-04-05T02:16:06.894Z,61.47
2023-04-05T02:18:33.696Z,60.35
2023-04-05T02:21:05.320Z,58.58
2023-04-05T02:23:33.062Z,62.28
2023-04-05T02:26:00.312Z,61.85
2023-04-05T02:28:27.314Z,66.05
2023-04-05T02:30:54.481Z,68.40
2023-04-05T02:33:22.872Z,68.80
2023-04-05T02:35:51.682Z,67.88
2023-04-05T02:38:19.070Z,67.90
2023-04-05T02:40:49.455Z,65.63
2023-04-05T02:43:16.623Z,65.15
2023-04-05T02:45:45.543Z,68.60
2023-04-05T02:48:14.350Z,67.45
2023-04-05T02:50:41.851Z,70.25
2023-04-05T02:53:09.228Z,71.90
2023-04-05T02:55:36.108Z,67.63
2023-04-05T02:58:03.086Z,69.45
2023-04-05T03:00:36.766Z,67.18
2023-04-05T03:03:04.297Z,71.68
2023-04-05T03:05:32.162Z,63.47
2023-04-05T03:07:59.613Z,67.38
2023-04-05T03:10:34.851Z,69.35
2023-04-05T03:13:10.366Z,69.82
2023-04-05T03:15:38.672Z,74.65
2023-04-05T03:18:11.377Z,68.55
2023-04-05T03:20:40.470Z,80.25
2023-04-05T03:23:15.085Z,89.57
2023-04-05T03:25:43.008Z,88.38
2023-04-05T03:28:10.398Z,86.55
2023-04-05T03:30:41.714Z,91.20
2023-04-05T03:35:47.359Z,81.88
2023-04-05T03:38:15.832Z,78.25
2023-04-05T03:40:52.552Z,78.20
2023-04-05T03:43:19.521Z,87.85
2023-04-05T03:45:47.415Z,79.47
2023-04-05T03:48:14.376Z,80.30
2023-04-05T03:50:41.606Z,87.28
2023-04-05T03:53:08.476Z,90.20
2023-04-05T03:55:35.957Z,87.97
2023-04-05T03:58:06.294Z,88.55
2023-04-05T04:00:36.049Z,82.00
2023-04-05T04:03:30.810Z,88.25
2023-04-05T04:05:58.098Z,90.20
2023-04-05T04:08:25.110Z,83.95
2023-04-05T04:10:52.251Z,85.28
2023-04-05T04:13:23.208Z,85.07
2023-04-05T04:15:59.065Z,84.45
2023-04-05T04:18:55.838Z,87.18
2023-04-05T04:21:45.937Z,91.80
2023-04-05T04:24:22.954Z,89.82
2023-04-05T04:27:06.861Z,88.35
2023-04-05T04:30:15.208Z,90.90
2023-04-05T04:33:09.381Z,84.28
2023-04-05T04:35:39.085Z,76.63
2023-04-05T04:38:26.085Z,88.68
2023-04-05T04:41:20.319Z,88.07
2023-04-05T04:44:06.120Z,89.43
2023-04-05T04:46:54.827Z,92.13
2023-04-05T04:49:45.397Z,94.07
2023-04-05T04:52:12.289Z,88.68
2023-04-05T04:54:42.550Z,90.95
2023-04-05T04:57:09.558Z,91.35
2023-04-05T04:59:36.589Z,93.22
2023-04-05T05:02:05.644Z,81.80
2023-04-05T05:04:34.397Z,93.53
2023-04-05T05:07:01.528Z,88.70
2023-04-05T05:09:28.360Z,86.45
2023-04-05T05:11:59.504Z,89.00
2023-04-05T05:14:26.451Z,90.05
2023-04-05T05:16:54.718Z,80.43
2023-04-05T05:19:21.921Z,84.10
2023-04-05T05:21:54.131Z,92.50
2023-04-05T05:24:21.350Z,81.80
2023-04-05T05:26:48.256Z,88.78
2023-04-05T05:29:19.884Z,90.60
2023-04-05T05:31:47.332Z,86.15
2023-04-05T05:34:14.185Z,92.45
2023-04-05T05:36:47.617Z,91.50
2023-04-05T05:39:14.564Z,91.32
2023-04-05T05:41:41.392Z,97.10
2023-04-05T05:44:08.394Z,111.80
2023-04-05T05:46:35.347Z,92.38
2023-04-05T05:49:02.404Z,96.88
2023-04-05T05:51:29.322Z,97.03
2023-04-05T05:53:56.221Z,90.57
2023-04-05T05:56:23.026Z,95.85
2023-04-05T05:58:50.065Z,91.93
2023-04-05T06:01:17.067Z,89.55
2023-04-05T06:03:43.980Z,90.50
2023-04-05T06:06:11.379Z,97.18
2023-04-05T06:08:38.611Z,90.72
2023-04-05T06:11:05.556Z,104.00
2023-04-05T06:13:32.516Z,103.03
2023-04-05T06:16:01.490Z,91.97
2023-04-05T06:18:28.430Z,99.13
2023-04-05T06:20:56.095Z,91.88
2023-04-05T06:23:22.992Z,95.22
2023-04-05T06:25:49.895Z,92.57
2023-04-05T06:28:16.929Z,93.30
2023-04-05T06:30:43.735Z,92.28
2023-04-05T06:33:10.639Z,87.00
2023-04-05T06:35:37.597Z,81.40
2023-04-05T06:38:04.486Z,76.60
2023-04-05T06:40:31.276Z,79.90
2023-04-05T06:42:58.303Z,79.45
2023-04-05T06:45:29.131Z,74.53
2023-04-05T06:47:56.149Z,72.80
2023-04-05T06:50:23.040Z,77.75
2023-04-05T06:52:50.205Z,70.25
2023-04-05T06:55:17.106Z,75.75
2023-04-05T06:57:44.022Z,71.45
2023-04-05T07:00:13.184Z,66.82
2023-04-05T07:02:40.167Z,69.05
2023-04-05T07:05:07.309Z,61.67
2023-04-05T07:07:34.625Z,60.75
2023-04-05T07:10:01.878Z,61.42
2023-04-05T07:12:28.819Z,59.08
2023-04-05T07:14:55.798Z,50.85
2023-04-05T07:17:22.796Z,50.58
2023-04-05T07:19:49.683Z,51.30
2023-04-05T07:22:16.595Z,49.88
2023-04-05T07:24:45.392Z,49.78
2023-04-05T07:27:12.651Z,46.30
2023-04-05T07:29:43.105Z,46.90
2023-04-05T07:32:10.607Z,47.38
2023-04-05T07:34:37.686Z,45.72
2023-04-05T07:37:06.476Z,46.85
2023-04-05T07:39:33.716Z,42.53
2023-04-05T07:42:00.762Z,42.25
2023-04-05T07:44:27.602Z,49.55
2023-04-05T07:46:54.629Z,46.33
2023-04-05T07:49:26.113Z,43.80
2023-04-05T07:51:57.647Z,39.85
2023-04-05T07:54:24.664Z,39.97
2023-04-05T07:56:52.987Z,37.92
2023-04-05T07:59:19.967Z,38.05
2023-04-05T08:01:46.815Z,40.88
2023-04-05T08:04:13.832Z,38.17
2023-04-05T08:06:40.966Z,36.88
2023-04-05T08:09:09.125Z,34.35
2023-04-05T08:11:36.083Z,31.27
2023-04-05T08:14:03.104Z,30.50
2023-04-05T08:16:30.074Z,33.33
2023-04-05T08:18:57.121Z,34.63
2023-04-05T08:21:23.920Z,31.55
2023-04-05T08:23:50.857Z,30.98
2023-04-05T08:26:17.997Z,25.65
2023-04-05T08:28:44.930Z,29.80
2023-04-05T08:31:18.766Z,25.30
2023-04-05T08:33:45.756Z,23.08
2023-04-05T08:36:12.718Z,23.80
2023-04-05T08:38:39.630Z,26.10
2023-04-05T08:41:14.285Z,27.02
2023-04-05T08:44:00.106Z,24.60
2023-04-05T08:48:54.133Z,28.92
2023-04-05T08:51:22.183Z,23.42
2023-04-05T08:53:49.712Z,28.63
2023-04-05T08:56:21.921Z,21.70
2023-04-05T08:59:07.378Z,19.40
2023-04-05T09:01:37.976Z,19.00
2023-04-05T09:04:15.362Z,20.42
2023-04-05T09:06:44.126Z,19.55
2023-04-05T09:09:11.940Z,22.02
2023-04-05T09:11:40.122Z,22.27
2023-04-05T09:14:07.303Z,17.40
2023-04-05T09:16:38.119Z,18.15
2023-04-05T09:19:06.558Z,16.73
2023-04-05T09:22:02.391Z,21.08
2023-04-05T09:24:36.875Z,20.90
2023-04-05T09:27:06.272Z,15.20
2023-04-05T09:29:33.539Z,17.13
2023-04-05T09:32:06.771Z,17.10
2023-04-05T09:34:36.684Z,22.00
2023-04-05T09:37:20.212Z,16.60
2023-04-05T09:39:52.241Z,15.95
2023-04-05T09:42:22.971Z,20.95
2023-04-05T09:44:50.484Z,16.70
2023-04-05T09:47:18.576Z,18.52
2023-04-05T09:49:45.633Z,17.25
2023-04-05T09:52:42.462Z,16.42
2023-04-05T09:55:10.356Z,11.70
2023-04-05T09:57:38.704Z,14.20
2023-04-05T10:00:10.020Z,11.35
2023-04-05T10:02:41.721Z,16.65
2023-04-05T10:05:13.412Z,16.08
2023-04-05T10:07:41.383Z,15.02
2023-04-05T10:10:12.860Z,17.80
2023-04-05T10:12:45.259Z,14.73
2023-04-05T10:15:14.420Z,16.70
2023-04-05T10:17:52.650Z,16.52
2023-04-05T10:20:21.140Z,13.73
2023-04-05T10:23:12.114Z,14.73
2023-04-05T10:26:00.880Z,13.23
2023-04-05T10:28:36.373Z,16.65
2023-04-05T10:31:38.973Z,14.38
2023-04-05T10:34:19.082Z,17.73
2023-04-05T10:36:58.431Z,14.85
2023-04-05T10:39:28.271Z,13.80
2023-04-05T10:41:59.421Z,15.48
2023-04-05T10:44:27.025Z,16.20
2023-04-05T10:46:56.391Z,14.40
2023-04-05T10:49:45.719Z,18.85
2023-04-05T10:52:13.471Z,16.73
2023-04-05T10:54:41.612Z,14.35
2023-04-05T10:57:10.163Z,16.08
2023-04-05T10:59:43.793Z,17.33
2023-04-05T11:02:11.703Z,16.88
2023-04-05T11:04:42.295Z,12.85
2023-04-05T11:07:19.792Z,15.93
2023-04-05T11:09:57.026Z,16.88
2023-04-05T11:12:46.112Z,13.50
2023-04-05T11:15:28.335Z,16.27
2023-04-05T11:18:11.810Z,16.15
2023-04-05T11:20:46.227Z,13.63
2023-04-05T11:23:15.669Z,19.67
2023-04-05T11:25:53.582Z,15.52
2023-04-05T11:28:37.275Z,30.20
2023-04-05T11:31:19.243Z,19.77
2023-04-05T11:33:55.014Z,22.02
2023-04-05T11:36:36.942Z,22.98
2023-04-05T11:39:19.547Z,23.85
2023-04-05T11:41:48.516Z,21.77
2023-04-05T11:44:19.162Z,24.52
2023-04-05T11:46:49.541Z,20.48
2023-04-05T11:49:16.819Z,18.50
2023-04-05T11:51:44.164Z,17.95
2023-04-05T11:54:11.261Z,20.90
2023-04-05T11:56:38.157Z,18.75
2023-04-05T11:59:05.037Z,22.27
2023-04-05T12:01:31.979Z,20.77
2023-04-05T12:03:58.979Z,23.05
2023-04-05T12:06:26.673Z,25.77
2023-04-05T12:08:55.929Z,20.73
2023-04-05T12:11:27.328Z,28.80
2023-04-05T12:13:56.284Z,21.27
2023-04-05T12:16:23.128Z,22.38
2023-04-05T12:18:55.054Z,25.63
2023-04-05T12:21:23.272Z,21.40
2023-04-05T12:23:51.694Z,22.77
2023-04-05T12:26:19.247Z,22.00
2023-04-05T12:28:57.417Z,21.55
2023-04-05T12:31:47.068Z,21.92
2023-04-05T12:34:15.348Z,18.80
2023-04-05T12:36:46.445Z,24.75
2023-04-05T12:39:15.844Z,23.50
2023-04-05T12:41:43.092Z,24.58
2023-04-05T12:44:17.487Z,25.58
2023-04-05T12:46:48.624Z,23.77
2023-04-05T12:49:17.008Z,24.30
2023-04-05T12:51:44.991Z,22.10
2023-04-05T12:54:21.721Z,23.13
2023-04-05T12:56:55.401Z,24.15
2023-04-05T12:59:23.344Z,24.27
2023-04-05T13:01:51.234Z,24.08
2023-04-05T13:04:18.636Z,24.25
2023-04-05T13:06:47.552Z,25.80
2023-04-05T13:09:14.951Z,22.25
2023-04-05T13:11:41.821Z,22.80
2023-04-05T13:14:08.957Z,21.77
2023-04-05T13:16:35.902Z,24.48
2023-04-05T13:19:03.192Z,22.75
2023-04-05T13:21:30.960Z,23.35
2023-04-05T13:23:57.987Z,23.58
2023-04-05T13:26:24.866Z,25.40
2023-04-05T13:28:51.816Z,25.15
2023-04-05T13:31:18.677Z,24.98
2023-04-05T13:33:45.697Z,26.42
2023-04-05T13:36:12.828Z,25.00
2023-04-05T13:38:41.192Z,25.95
2023-04-05T13:41:08.190Z,31.10
2023-04-05T13:43:35.270Z,26.10
2023-04-05T13:46:02.203Z,25.17
2023-04-05T13:48:29.112Z,25.00
2023-04-05T13:50:55.977Z,23.67
2023-04-05T13:53:23.174Z,25.48
2023-04-05T13:55:50.326Z,27.73
2023-04-05T13:58:17.271Z,23.50
2023-04-05T14:00:44.286Z,33.22
2023-04-05T14:03:11.461Z,28.88
2023-04-05T14:05:38.400Z,26.17
2023-04-05T14:08:05.360Z,27.90
2023-04-05T14:10:32.647Z,26.42
2023-04-05T14:12:59.898Z,26.50
2023-04-05T14:15:27.649Z,33.17
2023-04-05T14:17:54.677Z,28.10
2023-04-05T14:20:21.669Z,27.63
2023-04-05T14:22:48.698Z,27.27
2023-04-05T14:25:15.785Z,31.98
2023-04-05T14:27:42.851Z,31.38
2023-04-05T14:30:11.343Z,31.08
2023-04-05T14:32:38.654Z,29.70
2023-04-05T14:35:06.324Z,30.23
2023-04-05T14:37:33.270Z,28.83
2023-04-05T14:40:00.280Z,28.20
2023-04-05T14:42:37.284Z,35.03
2023-04-05T14:45:09.278Z,27.48
2023-04-05T14:47:36.171Z,25.30
2023-04-05T14:50:03.250Z,27.75
2023-04-05T14:52:30.463Z,30.80
2023-04-05T14:54:57.439Z,29.27
2023-04-05T14:57:24.397Z,29.40
2023-04-05T14:59:51.367Z,29.38
2023-04-05T15:02:18.391Z,28.85
2023-04-05T15:04:45.411Z,30.15
2023-04-05T15:07:13.217Z,28.17
2023-04-05T15:09:40.149Z,34.25
2023-04-05T15:12:07.207Z,33.15
2023-04-05T15:14:34.248Z,29.92
2023-04-05T15:17:01.177Z,29.27
2023-04-05T15:19:28.264Z,32.85
2023-04-05T15:21:55.538Z,32.17
2023-04-05T15:24:22.514Z,35.33
2023-04-05T15:26:49.527Z,30.30
2023-04-05T15:29:16.565Z,31.90
2023-04-05T15:31:43.454Z,29.58
2023-04-05T15:34:10.498Z,32.20
2023-04-05T15:36:37.442Z,28.80
2023-04-05T15:39:05.193Z,30.77
2023-04-05T15:41:33.657Z,31.30
2023-04-05T15:44:01.245Z,33.33
2023-04-05T15:46:29.325Z,30.58
2023-04-05T15:48:56.398Z,30.50
2023-04-05T15:51:23.419Z,33.60
2023-04-05T15:53:51.247Z,35.28
2023-04-05T15:56:18.326Z,29.73
2023-04-05T15:58:45.496Z,31.38
2023-04-05T16:01:12.556Z,29.83
2023-04-05T16:03:39.868Z,31.40
2023-04-05T16:06:07.015Z,37.40
2023-04-05T16:08:34.461Z,36.25
2023-04-05T16:11:01.438Z,36.20
2023-04-05T16:13:28.446Z,31.20
2023-04-05T16:15:55.384Z,34.45
2023-04-05T16:18:23.879Z,30.92
2023-04-05T16:20:51.002Z,34.83
2023-04-05T16:23:17.989Z,31.48
2023-04-05T16:25:44.875Z,33.92
2023-04-05T16:28:11.855Z,32.58
2023-04-05T16:30:38.752Z,29.77
2023-04-05T16:33:05.971Z,32.42
2023-04-05T16:35:33.081Z,31.85
2023-04-05T16:38:00.249Z,30.48
2023-04-05T16:40:27.201Z,30.60
2023-04-05T16:42:55.188Z,33.97
2023-04-05T16:45:22.653Z,31.13
2023-04-05T16:47:50.287Z,33.67
2023-04-05T16:50:19.324Z,28.95
2023-04-05T16:52:46.678Z,31.27
2023-04-05T16:55:13.606Z,35.53
2023-04-05T16:57:40.553Z,35.25
2023-04-05T17:00:08.146Z,31.83
2023-04-05T17:02:35.207Z,29.65
2023-04-05T17:05:02.558Z,35.13
2023-04-05T17:07:29.426Z,34.60
2023-04-05T17:09:57.964Z,34.78
2023-04-05T17:12:24.993Z,34.05
2023-04-05T17:14:51.903Z,37.38
2023-04-05T17:17:18.845Z,37.35
2023-04-05T17:19:45.840Z,32.85
2023-04-05T17:22:13.744Z,38.47
2023-04-05T17:24:40.703Z,33.10
2023-04-05T17:27:07.964Z,40.33
2023-04-05T17:29:34.852Z,34.45
2023-04-05T17:32:01.935Z,36.67
2023-04-05T17:34:28.858Z,31.13
2023-04-05T17:36:56.040Z,32.92
2023-04-05T17:39:22.993Z,34.47
2023-04-05T17:41:50.990Z,41.25
2023-04-05T17:44:19.036Z,32.67
2023-04-05T17:46:51.285Z,37.03
2023-04-05T17:49:24.534Z,35.53
2023-04-05T17:51:51.423Z,37.55
2023-04-05T17:54:18.373Z,35.17
2023-04-05T17:56:46.008Z,33.72
2023-04-05T17:59:13.015Z,35.25
2023-04-05T18:01:39.960Z,36.75
2023-04-05T18:04:08.801Z,31.80
2023-04-05T18:06:37.221Z,35.20
2023-04-05T18:09:04.577Z,47.85
2023-04-05T18:11:31.882Z,39.03
2023-04-05T18:13:58.743Z,43.83
2023-04-05T18:16:26.152Z,34.17
2023-04-05T18:18:53.361Z,35.80
2023-04-05T18:21:20.453Z,36.10
2023-04-05T18:23:48.098Z,35.55
2023-04-05T18:26:15.210Z,40.53
2023-04-05T18:28:42.069Z,38.03
2023-04-05T18:31:09.957Z,35.05
2023-04-05T18:33:37.908Z,35.38
2023-04-05T18:36:05.239Z,30.23
2023-04-05T18:38:32.340Z,35.15
2023-04-05T18:41:02.438Z,33.05
2023-04-05T18:43:30.033Z,34.40
2023-04-05T18:45:57.269Z,32.92
2023-04-05T18:48:24.968Z,64.20
2023-04-05T18:50:53.954Z,43.72
2023-04-05T18:53:22.055Z,43.75
2023-04-05T18:55:52.985Z,39.10
2023-04-05T18:58:20.780Z,37.38
2023-04-05T19:00:47.648Z,42.33
2023-04-05T19:03:16.137Z,44.83
2023-04-05T19:05:50.492Z,42.67
2023-04-05T19:08:19.912Z,41.08
2023-04-05T19:10:46.877Z,41.42
2023-04-05T19:13:13.826Z,42.78
2023-04-05T19:15:40.922Z,38.83
2023-04-05T19:18:08.052Z,39.13
2023-04-05T19:20:34.998Z,36.70
2023-04-05T19:23:02.003Z,36.85
2023-04-05T19:25:28.869Z,34.33
2023-04-05T19:27:56.516Z,36.65
2023-04-05T19:30:23.585Z,39.60
2023-04-05T19:32:54.646Z,37.15
2023-04-05T19:35:21.751Z,35.08
2023-04-05T19:37:48.708Z,40.63
2023-04-05T19:40:15.934Z,33.17
2023-04-05T19:42:47.381Z,37.85
2023-04-05T19:45:17.109Z,38.67
2023-04-05T19:47:48.490Z,36.67
2023-04-05T19:50:56.313Z,38.80
2023-04-05T19:53:43.103Z,38.25
2023-04-05T19:56:15.814Z,37.22
2023-04-05T19:58:43.823Z,37.17
2023-04-05T20:01:10.905Z,40.55
2023-04-05T20:03:40.034Z,41.25
2023-04-05T20:06:14.469Z,40.72
2023-04-05T20:08:46.563Z,38.50
2023-04-05T20:11:19.103Z,40.53
2023-04-05T20:13:50.751Z,39.45
2023-04-05T20:16:21.920Z,39.80
2023-04-05T20:18:49.314Z,39.90
2023-04-05T20:21:16.774Z,39.88
2023-04-05T20:23:44.689Z,37.08
2023-04-05T20:26:15.524Z,42.42
2023-04-05T20:28:55.414Z,38.88
2023-04-05T20:31:33.181Z,42.38
2023-04-05T20:34:15.482Z,37.35
2023-04-05T20:36:45.582Z,39.75
2023-04-05T20:39:12.821Z,40.92
2023-04-05T20:41:39.851Z,38.65
2023-04-05T20:44:07.025Z,37.55
2023-04-05T20:46:34.161Z,37.60
2023-04-05T20:49:01.352Z,41.00
2023-04-05T20:51:28.232Z,38.67
2023-04-05T20:53:55.618Z,37.67
2023-04-05T20:56:22.743Z,39.38
2023-04-05T20:58:49.872Z,38.85
2023-04-05T21:01:16.879Z,36.65
2023-04-05T21:03:44.214Z,35.70
2023-04-05T21:06:11.489Z,38.10
2023-04-05T21:08:40.054Z,36.10
2023-04-05T21:11:08.000Z,35.60
2023-04-05T21:13:35.766Z,41.10
2023-04-05T21:16:02.829Z,36.72
2023-04-05T21:18:29.933Z,39.70
2023-04-05T21:20:56.864Z,35.00
2023-04-05T21:23:28.385Z,34.03
2023-04-05T21:25:56.497Z,35.92
2023-04-05T21:28:26.884Z,34.13
2023-04-05T21:30:53.926Z,34.38
2023-04-05T21:33:20.942Z,39.20
2023-04-05T21:35:48.052Z,34.35
2023-04-05T21:38:15.949Z,35.58
2023-04-05T21:40:44.724Z,33.88
2023-04-05T21:43:13.211Z,37.00
2023-04-05T21:45:40.410Z,34.75
2023-04-05T21:48:07.634Z,32.75
2023-04-05T21:50:34.655Z,33.08
2023-04-05T21:53:01.535Z,35.63
2023-04-05T21:55:28.532Z,32.42
2023-04-05T21:57:55.478Z,37.20
2023-04-05T22:00:22.447Z,38.53
2023-04-05T22:02:49.411Z,36.17
2023-04-05T22:05:29.604Z,31.55
2023-04-05T22:08:03.885Z,34.20
2023-04-05T22:10:30.927Z,34.40
2023-04-05T22:12:57.943Z,40.60
2023-04-05T22:15:24.895Z,39.03
2023-04-05T22:17:51.907Z,35.25
2023-04-05T22:20:18.841Z,37.35
2023-04-05T22:22:45.856Z,36.28
2023-04-05T22:25:12.834Z,33.90
2023-04-05T22:27:39.944Z,33.17
2023-04-05T22:30:08.225Z,34.85
2023-04-05T22:32:35.804Z,34.35
2023-04-05T22:35:04.635Z,34.00
2023-04-05T22:37:41.219Z,31.83
2023-04-05T22:40:09.193Z,32.80
2023-04-05T22:42:37.994Z,36.30
2023-04-05T22:45:07.610Z,34.95
2023-04-05T22:47:34.760Z,35.63
2023-04-05T22:50:01.920Z,37.38
2023-04-05T22:52:29.112Z,38.03
2023-04-05T22:54:56.254Z,33.13
2023-04-05T22:57:23.179Z,38.90
2023-04-05T22:59:50.506Z,38.85
2023-04-05T23:02:17.399Z,33.30
2023-04-05T23:04:44.389Z,37.38
2023-04-05T23:07:11.300Z,36.10
2023-04-05T23:09:38.266Z,36.30
2023-04-05T23:12:05.563Z,36.35
2023-04-05T23:14:32.539Z,38.80
2023-04-05T23:16:59.477Z,40.25
2023-04-05T23:19:27.052Z,42.78
2023-04-05T23:21:55.480Z,40.08
2023-04-05T23:24:22.481Z,40.47
2023-04-05T23:26:49.389Z,38.42
2023-04-05T23:29:18.540Z,37.30
2023-04-05T23:31:46.078Z,36.45
2023-04-05T23:34:14.813Z,38.20
2023-04-05T23:36:41.709Z,39.72
2023-04-05T23:39:08.950Z,39.00
2023-04-05T23:41:36.228Z,40.53
2023-04-05T23:44:03.170Z,41.95
2023-04-05T23:46:30.103Z,39.67
2023-04-05T23:48:57.115Z,42.53
2023-04-05T23:51:24.314Z,39.70
2023-04-05T23:53:51.627Z,40.10
2023-04-05T23:56:18.616Z,34.78
2023-04-05T23:58:45.747Z,38.00
